createdAt,value
2022-08-16T00:00:20.213Z,19.40
2022-08-16T00:02:52.047Z,19.40
2022-08-16T00:05:20.905Z,19.40
2022-08-16T00:07:49.124Z,19.40
2022-08-16T00:10:25.911Z,19.30
2022-08-16T00:12:53.279Z,19.40
2022-08-16T00:15:52.011Z,19.40
2022-08-16T00:18:19.401Z,19.30
2022-08-16T00:20:51.838Z,19.30
2022-08-16T00:23:20.058Z,19.30
2022-08-16T00:26:35.540Z,19.30
2022-08-16T00:28:54.582Z,19.30
2022-08-16T00:31:24.164Z,19.20
2022-08-16T00:33:51.976Z,19.20
2022-08-16T00:36:19.736Z,19.30
2022-08-16T00:38:47.540Z,19.20
2022-08-16T00:41:15.440Z,19.20
2022-08-16T00:43:45.071Z,19.20
2022-08-16T00:46:36.293Z,19.20
2022-08-16T00:49:17.520Z,19.20
2022-08-16T00:51:47.177Z,19.10
2022-08-16T00:54:29.415Z,19.10
2022-08-16T00:57:00.245Z,19.10
2022-08-16T00:59:33.152Z,19.10
2022-08-16T01:02:30.389Z,19.10
2022-08-16T01:05:09.413Z,19.10
2022-08-16T01:07:50.713Z,19.10
2022-08-16T01:10:31.444Z,19.10
2022-08-16T01:13:05.621Z,19.10
2022-08-16T01:15:43.573Z,19.10
2022-08-16T01:18:39.226Z,19.10
2022-08-16T01:21:33.883Z,19.10
2022-08-16T01:24:44.429Z,19.10
2022-08-16T01:27:17.786Z,19.10
2022-08-16T01:30:00.042Z,19.10
2022-08-16T01:32:34.164Z,19.00
2022-08-16T01:35:22.401Z,19.00
2022-08-16T01:37:54.623Z,19.00
2022-08-16T01:40:30.276Z,19.00
2022-08-16T01:42:58.031Z,19.00
2022-08-16T01:45:40.519Z,19.00
2022-08-16T01:48:19.141Z,19.00
2022-08-16T01:51:09.788Z,18.90
2022-08-16T01:53:37.083Z,19.00
2022-08-16T01:56:26.076Z,18.90
2022-08-16T01:58:58.570Z,18.90
2022-08-16T02:01:28.830Z,18.90
2022-08-16T02:03:58.147Z,18.90
2022-08-16T02:06:34.621Z,18.90
2022-08-16T02:09:07.305Z,18.90
2022-08-16T02:11:48.354Z,18.90
2022-08-16T02:14:26.176Z,18.90
2022-08-16T02:16:56.362Z,18.80
2022-08-16T02:19:59.896Z,18.80
2022-08-16T02:22:34.945Z,18.80
2022-08-16T02:25:09.934Z,18.80
2022-08-16T02:27:44.905Z,18.80
2022-08-16T02:30:36.719Z,18.70
2022-08-16T02:33:10.237Z,18.70
2022-08-16T02:35:54.246Z,18.70
2022-08-16T02:38:28.704Z,18.70
2022-08-16T02:40:57.194Z,18.60
2022-08-16T02:43:29.548Z,18.50
2022-08-16T02:46:03.133Z,18.50
2022-08-16T02:48:37.829Z,18.40
2022-08-16T02:51:10.931Z,18.30
2022-08-16T02:53:44.640Z,18.30
2022-08-16T02:56:17.975Z,18.30
2022-08-16T02:58:47.164Z,18.20
2022-08-16T03:01:24.988Z,18.10
2022-08-16T03:04:28.812Z,18.10
2022-08-16T03:06:56.706Z,18.10
2022-08-16T03:09:38.419Z,17.90
2022-08-16T03:12:08.251Z,17.90
2022-08-16T03:14:35.869Z,17.80
2022-08-16T03:17:06.295Z,17.80
2022-08-16T03:19:47.953Z,17.80
2022-08-16T03:22:28.884Z,17.70
2022-08-16T03:25:07.865Z,17.70
2022-08-16T03:27:41.119Z,17.60
2022-08-16T03:30:21.225Z,17.60
2022-08-16T03:32:56.584Z,17.50
2022-08-16T03:35:33.143Z,17.50
2022-08-16T03:38:32.699Z,17.40
2022-08-16T03:41:01.574Z,17.40
2022-08-16T03:43:51.149Z,17.40
2022-08-16T03:46:47.218Z,17.40
2022-08-16T03:49:12.568Z,17.40
2022-08-16T03:51:42.565Z,17.30
2022-08-16T03:54:13.588Z,17.30
2022-08-16T03:56:57.773Z,17.20
2022-08-16T03:59:30.757Z,17.10
2022-08-16T04:02:22.546Z,17.10
2022-08-16T04:04:56.690Z,17.00
2022-08-16T04:07:26.077Z,17.00
2022-08-16T04:09:52.910Z,17.00
2022-08-16T04:12:53.479Z,17.00
2022-08-16T04:15:09.680Z,17.00
2022-08-16T04:17:42.543Z,16.90
2022-08-16T04:20:31.259Z,16.80
2022-08-16T04:23:01.737Z,16.80
2022-08-16T04:25:30.813Z,16.80
2022-08-16T04:28:51.729Z,16.90
2022-08-16T04:30:47.859Z,16.80
2022-08-16T04:33:17.769Z,16.90
2022-08-16T04:35:56.975Z,16.90
2022-08-16T04:38:25.668Z,16.90
2022-08-16T04:40:54.381Z,17.00
2022-08-16T04:43:21.491Z,17.00
2022-08-16T04:46:00.276Z,17.00
2022-08-16T04:48:33.868Z,17.00
2022-08-16T04:51:11.513Z,17.10
2022-08-16T04:53:49.711Z,17.00
2022-08-16T04:56:19.592Z,17.10
2022-08-16T04:58:47.184Z,17.10
2022-08-16T05:01:18.353Z,17.10
2022-08-16T05:04:00.648Z,17.20
2022-08-16T05:06:44.975Z,17.20
2022-08-16T05:09:23.234Z,17.20
2022-08-16T05:11:52.007Z,17.20
2022-08-16T05:14:46.096Z,17.20
2022-08-16T05:17:17.980Z,17.20
2022-08-16T05:19:46.507Z,17.30
2022-08-16T05:22:24.311Z,17.30
2022-08-16T05:24:56.164Z,17.40
2022-08-16T05:27:23.398Z,17.40
2022-08-16T05:29:59.998Z,17.50
2022-08-16T05:32:36.445Z,17.60
2022-08-16T05:35:14.550Z,17.70
2022-08-16T05:38:32.922Z,17.70
2022-08-16T05:41:09.531Z,17.80
2022-08-16T05:43:43.366Z,17.80
2022-08-16T05:46:29.884Z,17.90
2022-08-16T05:49:08.758Z,17.90
2022-08-16T05:51:40.310Z,17.80
2022-08-16T05:54:11.349Z,17.80
2022-08-16T05:56:40.823Z,17.80
2022-08-16T05:59:10.721Z,17.80
2022-08-16T06:01:39.310Z,17.90
2022-08-16T06:04:12.626Z,18.00
2022-08-16T06:06:55.779Z,18.00
2022-08-16T06:09:42.559Z,18.20
2022-08-16T06:12:27.119Z,18.40
2022-08-16T06:14:59.511Z,18.50
2022-08-16T06:17:41.462Z,18.60
2022-08-16T06:20:24.274Z,18.70
2022-08-16T06:23:03.471Z,18.90
2022-08-16T06:25:52.179Z,19.00
2022-08-16T06:28:36.396Z,19.20
2022-08-16T06:31:07.075Z,19.30
2022-08-16T06:33:41.696Z,19.50
2022-08-16T06:36:13.976Z,19.60
2022-08-16T06:38:55.296Z,19.70
2022-08-16T06:41:40.993Z,19.80
2022-08-16T06:44:20.779Z,19.90
2022-08-16T06:46:50.620Z,20.00
2022-08-16T06:49:18.523Z,20.20
2022-08-16T06:51:48.823Z,20.30
2022-08-16T06:54:22.648Z,20.40
2022-08-16T06:56:54.006Z,20.40
2022-08-16T06:59:25.637Z,20.60
2022-08-16T07:01:55.497Z,20.70
2022-08-16T07:04:33.084Z,20.80
2022-08-16T07:07:11.712Z,21.00
2022-08-16T07:09:41.889Z,21.10
2022-08-16T07:12:10.604Z,21.30
2022-08-16T07:14:41.297Z,21.40
2022-08-16T07:17:12.731Z,21.40
2022-08-16T07:20:03.778Z,21.50
2022-08-16T07:22:42.981Z,21.60
2022-08-16T07:25:23.959Z,21.70
2022-08-16T07:27:52.379Z,21.90
2022-08-16T07:30:45.177Z,22.00
2022-08-16T07:33:52.629Z,22.10
2022-08-16T07:36:07.625Z,22.20
2022-08-16T07:38:41.836Z,22.30
2022-08-16T07:41:10.816Z,22.40
2022-08-16T07:43:43.300Z,22.60
2022-08-16T07:46:39.394Z,22.60
2022-08-16T07:49:02.395Z,22.70
2022-08-16T07:51:37.148Z,22.80
2022-08-16T07:54:10.577Z,22.90
2022-08-16T07:56:44.308Z,23.00
2022-08-16T07:59:12.017Z,23.10
2022-08-16T08:01:41.349Z,23.20
2022-08-16T08:04:13.422Z,23.10
2022-08-16T08:06:43.292Z,23.20
2022-08-16T08:09:14.926Z,23.30
2022-08-16T08:12:00.739Z,23.40
2022-08-16T08:14:31.283Z,23.50
2022-08-16T08:17:01.779Z,23.60
2022-08-16T08:19:30.954Z,23.60
2022-08-16T08:22:01.519Z,23.50
2022-08-16T08:24:44.134Z,23.60
2022-08-16T08:27:11.991Z,23.60
2022-08-16T08:30:48.982Z,23.80
2022-08-16T08:32:59.582Z,23.90
2022-08-16T08:35:27.045Z,24.00
2022-08-16T08:37:56.483Z,24.00
2022-08-16T08:40:29.527Z,24.10
2022-08-16T08:43:11.338Z,24.10
2022-08-16T08:45:49.242Z,24.20
2022-08-16T08:48:33.246Z,24.20
2022-08-16T08:51:09.938Z,24.30
2022-08-16T08:53:57.662Z,24.30
2022-08-16T08:56:29.955Z,24.40
2022-08-16T08:59:13.309Z,24.60
2022-08-16T09:01:56.522Z,24.50
2022-08-16T09:04:28.614Z,24.70
2022-08-16T09:06:58.504Z,24.80
2022-08-16T09:09:33.764Z,24.90
2022-08-16T09:12:06.487Z,24.90
2022-08-16T09:14:51.319Z,25.00
2022-08-16T09:17:45.443Z,25.10
2022-08-16T09:20:16.887Z,25.30
2022-08-16T09:22:51.395Z,25.40
2022-08-16T09:25:25.781Z,25.50
2022-08-16T09:27:58.038Z,25.70
2022-08-16T09:30:43.132Z,25.60
2022-08-16T09:33:13.035Z,25.50
2022-08-16T09:35:42.483Z,25.50
2022-08-16T09:38:12.261Z,25.40
2022-08-16T09:40:42.714Z,25.40
2022-08-16T09:43:37.746Z,25.40
2022-08-16T09:46:03.414Z,25.50
2022-08-16T09:48:53.505Z,25.70
2022-08-16T09:51:30.587Z,25.70
2022-08-16T09:53:57.796Z,25.70
2022-08-16T09:56:27.994Z,25.70
2022-08-16T09:59:03.617Z,25.70
2022-08-16T10:01:33.346Z,25.90
2022-08-16T10:04:02.333Z,26.00
2022-08-16T10:06:34.010Z,26.20
2022-08-16T10:09:11.534Z,26.20
2022-08-16T10:12:11.104Z,26.30
2022-08-16T10:14:46.250Z,26.40
2022-08-16T10:17:13.674Z,26.40
2022-08-16T10:19:41.491Z,26.40
2022-08-16T10:22:12.677Z,26.30
2022-08-16T10:24:40.579Z,26.20
2022-08-16T10:27:27.073Z,26.10
2022-08-16T10:30:01.301Z,25.90
2022-08-16T10:32:35.105Z,25.80
2022-08-16T10:35:03.544Z,25.80
2022-08-16T10:37:36.300Z,26.00
2022-08-16T10:40:28.720Z,26.10
2022-08-16T10:42:56.963Z,26.20
2022-08-16T10:45:25.318Z,26.00
2022-08-16T10:48:00.940Z,26.00
2022-08-16T10:50:31.407Z,25.90
2022-08-16T10:52:59.354Z,25.70
2022-08-16T10:55:44.742Z,25.70
2022-08-16T10:58:16.882Z,25.80
2022-08-16T11:00:46.142Z,26.00
2022-08-16T11:06:03.406Z,26.20
2022-08-16T11:08:36.489Z,26.20
2022-08-16T11:11:12.912Z,26.20
2022-08-16T11:14:05.903Z,26.20
2022-08-16T11:19:22.753Z,26.00
2022-08-16T11:24:44.569Z,26.20
2022-08-16T11:27:20.605Z,26.30
2022-08-16T11:29:55.186Z,26.50
2022-08-16T11:32:31.240Z,26.60
2022-08-16T11:35:10.936Z,26.80
2022-08-16T11:40:34.218Z,26.80
2022-08-16T11:43:04.116Z,26.70
2022-08-16T11:45:34.003Z,26.60
2022-08-16T11:48:05.611Z,26.60
2022-08-16T11:50:33.864Z,26.60
2022-08-16T11:53:05.533Z,26.70
2022-08-16T11:55:38.178Z,26.80
2022-08-16T11:58:07.766Z,27.00
2022-08-16T12:00:50.625Z,27.20
2022-08-16T12:03:20.453Z,27.40
2022-08-16T12:06:02.358Z,27.40
2022-08-16T12:08:30.937Z,27.20
2022-08-16T12:10:59.991Z,27.10
2022-08-16T12:13:29.652Z,27.20
2022-08-16T12:15:56.359Z,27.40
2022-08-16T12:18:24.757Z,27.50
2022-08-16T12:20:52.141Z,27.60
2022-08-16T12:23:22.863Z,27.80
2022-08-16T12:25:49.683Z,27.90
2022-08-16T12:28:36.846Z,28.10
2022-08-16T12:31:05.486Z,28.30
2022-08-16T12:33:32.852Z,28.60
2022-08-16T12:36:13.109Z,28.70
2022-08-16T12:38:48.591Z,28.90
2022-08-16T12:41:24.716Z,29.00
2022-08-16T12:43:52.758Z,29.10
2022-08-16T12:46:25.235Z,29.20
2022-08-16T12:48:58.487Z,29.10
2022-08-16T12:51:58.560Z,29.00
2022-08-16T12:54:19.913Z,29.00
2022-08-16T12:56:47.645Z,29.00
2022-08-16T12:59:20.170Z,29.00
2022-08-16T13:01:50.261Z,29.10
2022-08-16T13:04:20.306Z,29.20
2022-08-16T13:06:49.976Z,29.40
2022-08-16T13:09:26.601Z,29.60
2022-08-16T13:12:15.700Z,29.60
2022-08-16T13:14:44.714Z,29.70
2022-08-16T13:17:18.692Z,29.90
2022-08-16T13:20:07.287Z,30.00
2022-08-16T13:22:44.575Z,29.80
2022-08-16T13:25:19.444Z,29.70
2022-08-16T13:28:02.532Z,29.70
2022-08-16T13:30:42.520Z,29.60
2022-08-16T13:33:14.812Z,29.40
2022-08-16T13:35:56.260Z,29.30
2022-08-16T13:38:35.181Z,29.30
2022-08-16T13:41:05.776Z,29.30
2022-08-16T13:43:36.813Z,29.40
2022-08-16T13:46:04.733Z,29.50
2022-08-16T13:48:42.855Z,29.60
2022-08-16T13:51:17.146Z,29.70
2022-08-16T13:53:59.921Z,29.80
2022-08-16T13:56:37.026Z,29.60
2022-08-16T13:59:06.235Z,29.50
2022-08-16T14:01:45.177Z,29.60
2022-08-16T14:04:18.981Z,29.70
2022-08-16T14:06:53.119Z,29.80
2022-08-16T14:09:20.580Z,29.90
2022-08-16T14:11:47.334Z,30.00
2022-08-16T14:14:16.871Z,30.00
2022-08-16T14:16:45.075Z,30.00
2022-08-16T14:19:18.049Z,30.00
2022-08-16T14:21:56.706Z,30.10
2022-08-16T14:24:37.204Z,30.10
2022-08-16T14:27:04.702Z,30.10
2022-08-16T14:29:35.153Z,30.00
2022-08-16T14:32:07.067Z,30.00
2022-08-16T14:34:34.533Z,30.10
2022-08-16T14:37:05.251Z,30.10
2022-08-16T14:39:33.756Z,30.00
2022-08-16T14:42:10.691Z,30.10
2022-08-16T14:44:41.272Z,30.10
2022-08-16T14:47:08.361Z,30.10
2022-08-16T14:49:36.439Z,30.10
2022-08-16T14:52:13.805Z,30.20
2022-08-16T14:54:43.322Z,30.30
2022-08-16T14:57:12.242Z,30.30
2022-08-16T14:59:41.323Z,30.20
2022-08-16T15:02:34.075Z,30.10
2022-08-16T15:05:04.296Z,30.10
2022-08-16T15:07:35.247Z,30.10
2022-08-16T15:10:03.476Z,29.80
2022-08-16T15:12:33.502Z,29.70
2022-08-16T15:15:04.499Z,29.70
2022-08-16T15:17:39.494Z,29.80
2022-08-16T15:20:10.836Z,29.80
2022-08-16T15:22:41.716Z,29.90
2022-08-16T15:25:32.974Z,30.00
2022-08-16T15:28:04.675Z,30.10
2022-08-16T15:30:57.176Z,29.80
2022-08-16T15:33:25.468Z,29.70
2022-08-16T15:35:55.364Z,29.60
2022-08-16T15:38:56.823Z,29.50
2022-08-16T15:41:43.651Z,29.70
2022-08-16T15:44:13.654Z,29.80
2022-08-16T15:46:55.523Z,29.90
2022-08-16T15:49:34.851Z,29.90
2022-08-16T15:52:33.976Z,29.90
2022-08-16T15:55:13.311Z,29.60
2022-08-16T15:57:51.505Z,29.30
2022-08-16T16:00:20.562Z,29.30
2022-08-16T16:02:49.344Z,29.40
2022-08-16T16:05:16.983Z,29.40
2022-08-16T16:07:56.530Z,29.40
2022-08-16T16:10:31.234Z,29.50
2022-08-16T16:13:00.869Z,29.50
2022-08-16T16:15:34.044Z,29.50
2022-08-16T16:18:05.326Z,29.60
2022-08-16T16:20:39.576Z,29.60
2022-08-16T16:23:10.549Z,29.70
2022-08-16T16:25:39.618Z,29.70
2022-08-16T16:28:29.913Z,29.60
2022-08-16T16:31:00.701Z,29.60
2022-08-16T16:33:29.167Z,29.50
2022-08-16T16:36:00.044Z,29.60
2022-08-16T16:38:30.503Z,29.40
2022-08-16T16:40:59.613Z,29.30
2022-08-16T16:43:31.370Z,29.40
2022-08-16T16:46:00.576Z,29.40
2022-08-16T16:48:34.369Z,29.40
2022-08-16T16:51:10.072Z,29.30
2022-08-16T16:53:42.543Z,29.30
2022-08-16T16:56:20.435Z,29.20
2022-08-16T16:59:01.288Z,29.20
2022-08-16T17:01:41.430Z,29.20
2022-08-16T17:04:23.849Z,29.30
2022-08-16T17:06:58.227Z,29.40
2022-08-16T17:09:25.355Z,29.40
2022-08-16T17:11:54.939Z,29.50
2022-08-16T17:14:32.929Z,29.50
2022-08-16T17:17:06.552Z,29.70
2022-08-16T17:19:34.210Z,29.80
2022-08-16T17:22:14.194Z,30.10
2022-08-16T17:24:50.619Z,30.40
2022-08-16T17:27:32.728Z,30.80
2022-08-16T17:30:16.893Z,31.20
2022-08-16T17:32:50.324Z,31.50
2022-08-16T17:35:21.288Z,31.80
2022-08-16T17:37:52.180Z,32.10
2022-08-16T17:40:40.646Z,32.20
2022-08-16T17:43:13.969Z,32.30
2022-08-16T17:45:42.833Z,32.20
2022-08-16T17:48:09.760Z,32.20
2022-08-16T17:50:37.902Z,32.10
2022-08-16T17:53:05.307Z,31.70
2022-08-16T17:55:35.388Z,31.30
2022-08-16T17:58:20.160Z,31.00
2022-08-16T18:00:51.723Z,30.50
2022-08-16T18:04:02.722Z,30.10
2022-08-16T18:06:13.033Z,29.70
2022-08-16T18:08:41.461Z,29.40
2022-08-16T18:11:12.196Z,29.10
2022-08-16T18:13:42.848Z,28.80
2022-08-16T18:16:10.222Z,28.60
2022-08-16T18:18:37.181Z,28.30
2022-08-16T18:21:22.499Z,28.10
2022-08-16T18:23:49.428Z,27.90
2022-08-16T18:26:17.084Z,27.70
2022-08-16T18:28:43.815Z,27.40
2022-08-16T18:31:10.636Z,27.20
2022-08-16T18:33:43.608Z,27.10
2022-08-16T18:36:20.218Z,26.90
2022-08-16T18:38:49.875Z,26.70
2022-08-16T18:41:17.765Z,26.40
2022-08-16T18:44:23.089Z,26.30
2022-08-16T18:46:31.380Z,26.10
2022-08-16T18:48:58.224Z,26.00
2022-08-16T18:51:25.841Z,25.90
2022-08-16T18:53:54.297Z,25.70
2022-08-16T18:56:21.111Z,25.60
2022-08-16T18:58:47.906Z,25.40
2022-08-16T19:01:15.271Z,25.30
2022-08-16T19:03:42.102Z,25.10
2022-08-16T19:06:13.882Z,25.00
2022-08-16T19:08:43.517Z,24.90
2022-08-16T19:11:19.034Z,24.80
2022-08-16T19:13:46.403Z,24.70
2022-08-16T19:16:14.229Z,24.60
2022-08-16T19:18:41.304Z,24.50
2022-08-16T19:21:10.064Z,24.40
2022-08-16T19:23:42.617Z,24.30
2022-08-16T19:26:25.664Z,24.10
2022-08-16T19:28:59.005Z,24.00
2022-08-16T19:31:34.690Z,24.00
2022-08-16T19:34:03.823Z,23.90
2022-08-16T19:36:35.882Z,23.70
2022-08-16T19:39:06.932Z,23.60
2022-08-16T19:41:38.104Z,23.50
2022-08-16T19:44:06.237Z,23.40
2022-08-16T19:46:33.309Z,23.40
2022-08-16T19:49:01.398Z,23.30
2022-08-16T19:51:29.092Z,23.20
2022-08-16T19:53:57.339Z,23.20
2022-08-16T19:56:26.325Z,23.10
2022-08-16T19:59:18.247Z,23.00
2022-08-16T20:01:42.558Z,22.90
2022-08-16T20:04:12.586Z,22.90
2022-08-16T20:06:40.921Z,22.80
2022-08-16T20:09:10.538Z,22.70
2022-08-16T20:11:46.575Z,22.60
2022-08-16T20:14:19.226Z,22.60
2022-08-16T20:16:52.270Z,22.50
2022-08-16T20:19:19.658Z,22.50
2022-08-16T20:21:46.507Z,22.40
2022-08-16T20:24:32.444Z,22.30
2022-08-16T20:27:00.511Z,22.30
2022-08-16T20:29:27.855Z,22.10
2022-08-16T20:31:54.781Z,22.10
2022-08-16T20:34:21.612Z,22.00
2022-08-16T20:36:48.304Z,21.90
2022-08-16T20:39:15.138Z,21.90
2022-08-16T20:41:42.840Z,21.80
2022-08-16T20:44:12.484Z,21.80
2022-08-16T20:46:39.671Z,21.70
2022-08-16T20:49:09.269Z,21.70
2022-08-16T20:51:49.947Z,21.70
2022-08-16T20:54:18.049Z,21.60
2022-08-16T20:56:44.861Z,21.60
2022-08-16T20:59:11.783Z,21.50
2022-08-16T21:01:47.004Z,21.50
2022-08-16T21:04:22.602Z,21.40
2022-08-16T21:06:53.926Z,21.40
2022-08-16T21:09:23.721Z,21.30
2022-08-16T21:11:55.201Z,21.30
2022-08-16T21:14:23.165Z,21.20
2022-08-16T21:16:50.525Z,21.20
2022-08-16T21:19:17.605Z,21.10
2022-08-16T21:21:44.605Z,21.00
2022-08-16T21:24:11.632Z,21.00
2022-08-16T21:26:39.045Z,21.00
2022-08-16T21:29:07.755Z,20.90
2022-08-16T21:31:40.460Z,20.90
2022-08-16T21:34:08.593Z,20.80
2022-08-16T21:36:36.698Z,20.80
2022-08-16T21:39:06.747Z,20.70
2022-08-16T21:41:35.640Z,20.70
2022-08-16T21:44:02.571Z,20.70
2022-08-16T21:46:29.486Z,20.60
2022-08-16T21:48:56.266Z,20.60
2022-08-16T21:51:23.077Z,20.60
2022-08-16T21:53:49.861Z,20.50
2022-08-16T21:56:17.603Z,20.50
2022-08-16T21:58:52.741Z,20.40
2022-08-16T22:01:21.793Z,20.40
2022-08-16T22:03:49.798Z,20.40
2022-08-16T22:06:38.287Z,20.30
2022-08-16T22:09:06.628Z,20.20
2022-08-16T22:11:33.685Z,20.20
2022-08-16T22:14:01.078Z,20.20
2022-08-16T22:16:34.009Z,20.10
2022-08-16T22:19:05.667Z,20.20
2022-08-16T22:21:34.000Z,20.10
2022-08-16T22:24:01.383Z,20.00
2022-08-16T22:26:33.027Z,20.00
2022-08-16T22:29:07.803Z,19.90
2022-08-16T22:31:36.231Z,19.80
2022-08-16T22:34:03.995Z,19.80
2022-08-16T22:36:33.164Z,19.70
2022-08-16T22:39:01.852Z,19.70
2022-08-16T22:41:31.787Z,19.70
2022-08-16T22:43:59.989Z,19.70
2022-08-16T22:46:26.794Z,19.70
2022-08-16T22:49:03.855Z,19.60
2022-08-16T22:51:31.096Z,19.50
2022-08-16T22:53:58.377Z,19.40
2022-08-16T22:56:25.782Z,19.40
2022-08-16T22:58:53.370Z,19.40
2022-08-16T23:01:22.291Z,19.30
2022-08-16T23:03:49.505Z,19.30
2022-08-16T23:06:18.301Z,19.20
2022-08-16T23:08:45.122Z,19.10
2022-08-16T23:11:19.406Z,19.10
2022-08-16T23:13:52.433Z,19.10
2022-08-16T23:16:33.354Z,19.10
2022-08-16T23:19:10.357Z,19.00
2022-08-16T23:21:40.840Z,18.90
2022-08-16T23:24:09.320Z,18.90
2022-08-16T23:26:46.230Z,18.80
2022-08-16T23:29:25.625Z,18.70
2022-08-16T23:31:57.960Z,18.70
2022-08-16T23:34:26.989Z,18.70
2022-08-16T23:36:54.068Z,18.70
2022-08-16T23:39:20.868Z,18.70
2022-08-16T23:41:47.636Z,18.70
2022-08-16T23:44:42.159Z,18.60
2022-08-16T23:47:01.730Z,18.50
2022-08-16T23:49:58.570Z,18.50
2022-08-16T23:52:17.976Z,18.50
2022-08-16T23:54:45.405Z,18.50
2022-08-16T23:57:12.161Z,18.50
2022-08-16T23:59:48.622Z,18.50
